Time;durP1;ratioP1;P1;durP2;ratioP2;P2;SDS_P1;SDS_P2;PMS_P1;PMS_P2;Temp;Humidity;BMP_temperature;BMP_pressure;BME280_temperature;BME280_humidity;BME280_pressure;Samples;Min_cycle;Max_cycle;Signal;HPM_P1;HPM_P2
2022/05/06 00:02:10;;;;;;;11.27;8.05;;;7.50;99.90;;;;;;5013006;28;20434;-51
2022/05/06 00:04:36;;;;;;;11.45;7.63;;;7.50;99.90;;;;;;4995218;28;20029;-50
2022/05/06 00:07:02;;;;;;;12.27;7.93;;;7.50;99.90;;;;;;5013096;28;20026;-48
2022/05/06 00:09:28;;;;;;;13.63;9.13;;;7.40;99.90;;;;;;5013050;28;20715;-51
2022/05/06 00:11:54;;;;;;;11.93;8.18;;;7.40;99.90;;;;;;5012805;28;20022;-49
2022/05/06 00:14:20;;;;;;;10.95;8.05;;;7.40;99.90;;;;;;5013186;28;20061;-50
2022/05/06 00:16:45;;;;;;;12.77;8.48;;;7.40;99.90;;;;;;5013437;28;20026;-52
2022/05/06 00:19:11;;;;;;;15.75;8.50;;;7.40;99.90;;;;;;5012570;28;20026;-49
2022/05/06 00:21:37;;;;;;;13.50;9.25;;;7.40;99.90;;;;;;5012962;28;20153;-49
2022/05/06 00:24:04;;;;;;;16.65;9.73;;;7.40;99.90;;;;;;5012486;28;20104;-50
2022/05/06 00:26:30;;;;;;;17.67;10.50;;;7.40;99.90;;;;;;5012496;28;20427;-50
2022/05/06 00:28:55;;;;;;;15.27;10.38;;;7.40;99.90;;;;;;5012363;28;20114;-50
2022/05/06 00:31:21;;;;;;;15.65;10.75;;;7.40;99.90;;;;;;5012164;28;20065;-51
2022/05/06 00:33:48;;;;;;;13.27;10.50;;;7.40;99.90;;;;;;5012416;28;20034;-52
2022/05/06 00:36:14;;;;;;;14.60;9.45;;;7.50;99.90;;;;;;5012506;28;20018;-48
2022/05/06 00:38:42;;;;;;;13.98;9.77;;;7.40;99.90;;;;;;5012192;28;20121;-49
2022/05/06 00:41:09;;;;;;;17.58;10.45;;;7.40;99.90;;;;;;5012339;28;20563;-49
2022/05/06 00:43:41;;;;;;;18.23;9.88;;;7.40;99.90;;;;;;5012070;28;20121;-48
2022/05/06 00:46:15;;;;;;;13.52;9.48;;;7.40;99.90;;;;;;5012226;28;20076;-50
2022/05/06 00:48:50;;;;;;;16.05;9.35;;;7.30;99.90;;;;;;5012288;28;20029;-49
2022/05/06 00:51:20;;;;;;;15.27;10.60;;;7.30;99.90;;;;;;5012175;28;20066;-48
2022/05/06 00:53:47;;;;;;;13.48;10.05;;;7.20;99.90;;;;;;5012233;28;20449;-48
2022/05/06 00:56:14;;;;;;;15.32;9.85;;;7.30;99.90;;;;;;5009932;28;20022;-48
2022/05/06 00:58:39;;;;;;;15.60;9.70;;;7.20;99.90;;;;;;5010773;28;20045;-49
2022/05/06 01:01:06;;;;;;;17.20;10.48;;;7.20;99.90;;;;;;5009244;28;20034;-52
2022/05/06 01:03:32;;;;;;;13.82;9.82;;;7.10;99.90;;;;;;5008750;28;20481;-50
2022/05/06 01:05:58;;;;;;;17.17;10.88;;;7.00;99.90;;;;;;5011593;28;20049;-50
2022/05/06 01:08:24;;;;;;;19.10;10.15;;;7.00;99.90;;;;;;5011776;28;20033;-53
2022/05/06 01:10:49;;;;;;;14.07;10.30;;;7.00;99.90;;;;;;5012062;28;20099;-49
2022/05/06 01:13:18;;;;;;;19.17;10.88;;;7.00;99.90;;;;;;4994049;28;20042;-49
2022/05/06 01:15:43;;;;;;;14.20;10.10;;;6.90;99.90;;;;;;4994243;28;20116;-49
2022/05/06 01:18:14;;;;;;;14.15;8.95;;;6.90;99.90;;;;;;5011611;28;20473;-49
2022/05/06 01:20:48;;;;;;;14.18;9.70;;;6.90;99.90;;;;;;5011719;28;20026;-49
2022/05/06 01:23:14;;;;;;;17.42;9.43;;;6.80;99.90;;;;;;5011489;28;20650;-48
2022/05/06 01:25:41;;;;;;;14.85;9.85;;;6.80;99.90;;;;;;5011029;28;20038;-47
2022/05/06 01:28:07;;;;;;;16.52;10.35;;;6.80;99.90;;;;;;5011069;28;20037;-48
2022/05/06 01:30:45;;;;;;;16.90;10.40;;;6.80;99.90;;;;;;5011193;28;20045;-49
2022/05/06 01:33:14;;;;;;;17.30;9.98;;;6.80;99.90;;;;;;5010942;28;20041;-48
2022/05/06 01:35:55;;;;;;;16.45;10.85;;;6.70;99.90;;;;;;5011525;28;20049;-48
2022/05/06 01:38:40;;;;;;;17.02;10.45;;;6.70;99.90;;;;;;4993888;28;20026;-48
2022/05/06 01:41:10;;;;;;;14.40;9.38;;;6.70;99.90;;;;;;5011199;28;20045;-49
2022/05/06 01:43:39;;;;;;;17.98;10.65;;;6.70;99.90;;;;;;5011168;28;20026;-48
2022/05/06 01:46:06;;;;;;;17.25;11.00;;;6.60;99.90;;;;;;5011107;28;20026;-48
2022/05/06 01:48:34;;;;;;;15.35;11.50;;;6.60;99.90;;;;;;5011225;28;20105;-50
2022/05/06 01:51:01;;;;;;;15.05;11.20;;;6.60;99.90;;;;;;5011258;28;20034;-49
2022/05/06 01:53:27;;;;;;;18.42;11.40;;;6.60;99.90;;;;;;5010653;28;20058;-51
2022/05/06 01:55:53;;;;;;;18.45;10.75;;;6.50;99.90;;;;;;5011082;28;20037;-52
2022/05/06 01:58:20;;;;;;;16.35;11.55;;;6.50;99.90;;;;;;5011009;28;20509;-51
2022/05/06 02:00:45;;;;;;;18.13;11.63;;;6.50;99.90;;;;;;5011137;28;20045;-48
2022/05/06 02:05:16;;;;;;;15.48;10.23;;;6.50;99.90;;;;;;4992954;28;20132;-49
2022/05/06 02:05:56;;;;;;;22.38;10.95;;;6.40;99.90;;;;;;5010542;28;20018;-51
2022/05/06 02:08:23;;;;;;;15.75;10.82;;;6.40;99.90;;;;;;4993432;28;20034;-51
2022/05/06 02:10:48;;;;;;;20.55;9.50;;;6.40;99.90;;;;;;5010789;28;20021;-49
2022/05/06 02:13:14;;;;;;;14.98;10.30;;;6.30;99.90;;;;;;5010046;28;20029;-50
2022/05/06 02:15:40;;;;;;;12.55;9.93;;;6.30;99.90;;;;;;5010415;28;20065;-48
2022/05/06 02:18:09;;;;;;;14.82;10.73;;;6.20;99.90;;;;;;5010418;28;20040;-48
2022/05/06 02:20:35;;;;;;;17.63;11.15;;;6.20;99.90;;;;;;5010433;28;20040;-51
2022/05/06 02:23:00;;;;;;;16.83;11.77;;;6.20;99.90;;;;;;5010637;28;20121;-48
2022/05/06 02:25:26;;;;;;;19.17;10.85;;;6.10;99.90;;;;;;5010401;28;20088;-52
2022/05/06 02:27:51;;;;;;;20.65;10.68;;;6.10;99.90;;;;;;5010245;28;20029;-49
2022/05/06 02:33:13;;;;;;;18.67;10.75;;;6.00;99.90;;;;;;5010495;28;20121;-51
2022/05/06 02:35:43;;;;;;;15.38;10.27;;;6.00;99.90;;;;;;5010453;28;20449;-48
2022/05/06 02:38:10;;;;;;;15.95;11.73;;;6.00;99.90;;;;;;5009844;28;20112;-49
2022/05/06 02:40:37;;;;;;;17.05;11.52;;;5.90;99.90;;;;;;5010296;28;20438;-48
2022/05/06 02:43:03;;;;;;;15.85;10.48;;;5.90;99.90;;;;;;5009903;28;20026;-51
2022/05/06 02:45:29;;;;;;;13.65;10.07;;;5.90;99.90;;;;;;5010177;28;20101;-53
2022/05/06 02:47:55;;;;;;;17.30;11.38;;;6.00;99.90;;;;;;5010462;28;20129;-48
2022/05/06 02:50:20;;;;;;;18.20;12.50;;;6.00;99.90;;;;;;4992944;28;20037;-49
2022/05/06 02:52:46;;;;;;;18.90;12.45;;;6.00;99.90;;;;;;5009778;28;20026;-49
2022/05/06 02:55:12;;;;;;;20.75;12.77;;;6.00;99.90;;;;;;4975878;28;20120;-48
2022/05/06 02:57:37;;;;;;;19.45;13.70;;;6.00;99.90;;;;;;5001656;28;20052;-48
2022/05/06 03:00:04;;;;;;;23.33;13.25;;;6.00;99.90;;;;;;4994967;28;20030;-48
2022/05/06 03:02:30;;;;;;;21.63;14.20;;;6.00;99.90;;;;;;4989961;28;20041;-48
2022/05/06 03:04:56;;;;;;;24.98;14.18;;;6.00;99.90;;;;;;4972348;28;20026;-51
2022/05/06 03:07:22;;;;;;;25.77;14.77;;;6.00;99.90;;;;;;4990092;28;20117;-51
2022/05/06 03:09:47;;;;;;;29.17;15.35;;;6.00;99.90;;;;;;4990177;28;20037;-50
2022/05/06 03:12:16;;;;;;;27.02;15.23;;;5.90;99.90;;;;;;4990124;28;20034;-50
2022/05/06 03:14:42;;;;;;;25.70;14.38;;;5.90;99.90;;;;;;4990175;28;20030;-48
2022/05/06 03:17:07;;;;;;;25.98;16.17;;;5.90;99.90;;;;;;4990302;28;20088;-48
2022/05/06 03:19:34;;;;;;;32.40;17.92;;;5.90;99.90;;;;;;4990154;28;20046;-48
2022/05/06 03:22:00;;;;;;;33.40;17.35;;;5.90;99.90;;;;;;4990122;28;20538;-51
2022/05/06 03:24:25;;;;;;;34.13;21.15;;;6.00;99.90;;;;;;4990153;28;20030;-48
2022/05/06 03:26:51;;;;;;;33.10;18.98;;;6.00;99.90;;;;;;4994094;28;20041;-48
2022/05/06 03:29:16;;;;;;;30.30;18.13;;;6.10;99.90;;;;;;4994374;28;20113;-51
2022/05/06 03:31:42;;;;;;;51.90;20.13;;;6.10;99.90;;;;;;4993934;28;20494;-51
2022/05/06 03:34:07;;;;;;;29.13;18.42;;;6.10;99.90;;;;;;4976493;28;20674;-47
2022/05/06 03:36:33;;;;;;;28.80;18.13;;;6.00;99.90;;;;;;4993904;28;20033;-48
2022/05/06 03:39:00;;;;;;;38.40;17.45;;;6.00;99.90;;;;;;4994088;28;20398;-49
2022/05/06 03:41:25;;;;;;;79.05;20.20;;;6.00;99.90;;;;;;4993731;28;20030;-50
2022/05/06 03:43:51;;;;;;;40.60;16.85;;;5.90;99.90;;;;;;4993907;28;20032;-50
2022/05/06 03:46:16;;;;;;;41.00;17.17;;;5.90;99.90;;;;;;4993948;28;20089;-49
2022/05/06 03:48:42;;;;;;;49.45;17.55;;;5.80;99.90;;;;;;4993416;28;20030;-51
2022/05/06 03:51:21;;;;;;;29.48;16.80;;;5.80;99.90;;;;;;4993344;28;20499;-48
2022/05/06 03:53:51;;;;;;;31.17;16.52;;;5.80;99.90;;;;;;4993684;28;20110;-52
2022/05/06 03:56:18;;;;;;;70.00;18.75;;;5.80;99.90;;;;;;4976320;28;20126;-51
2022/05/06 03:58:44;;;;;;;34.20;17.38;;;5.80;99.90;;;;;;4993615;28;20018;-49
2022/05/06 04:01:11;;;;;;;44.00;18.98;;;5.70;99.90;;;;;;4993534;28;20028;-53
2022/05/06 04:03:38;;;;;;;35.42;19.27;;;5.70;99.90;;;;;;4993648;28;20026;-49
2022/05/06 04:06:04;;;;;;;30.92;17.50;;;5.70;99.90;;;;;;4993402;28;20162;-51
2022/05/06 04:08:30;;;;;;;46.40;19.95;;;5.70;99.90;;;;;;4993379;28;20066;-48
2022/05/06 04:10:56;;;;;;;43.55;20.98;;;5.80;99.90;;;;;;4993625;28;20033;-51
2022/05/06 04:13:21;;;;;;;33.30;19.45;;;5.80;99.90;;;;;;4992610;28;20486;-53
2022/05/06 04:15:47;;;;;;;36.65;20.42;;;5.80;99.90;;;;;;4975763;28;20035;-49
2022/05/06 04:18:14;;;;;;;34.22;17.02;;;5.80;99.90;;;;;;4992980;28;20030;-48
2022/05/06 04:23:31;;;;;;;46.10;19.35;;;5.90;99.90;;;;;;4993246;28;20505;-48
2022/05/06 04:26:00;;;;;;;47.33;20.42;;;6.00;99.90;;;;;;4992906;28;20042;-49
2022/05/06 04:28:29;;;;;;;39.08;20.83;;;6.00;99.90;;;;;;4992942;28;20042;-47
2022/05/06 04:30:55;;;;;;;37.05;19.23;;;6.00;99.90;;;;;;4992954;28;20113;-52
2022/05/06 04:33:22;;;;;;;36.78;19.15;;;6.10;99.90;;;;;;4992597;28;20114;-48
2022/05/06 04:35:48;;;;;;;35.88;19.48;;;6.20;99.90;;;;;;4992484;28;20077;-49
2022/05/06 04:38:14;;;;;;;28.67;18.05;;;6.20;99.90;;;;;;4992719;28;20037;-51
2022/05/06 04:40:41;;;;;;;31.15;17.42;;;6.30;99.90;;;;;;4993019;28;20030;-47
2022/05/06 04:43:10;;;;;;;30.42;15.93;;;6.40;99.90;;;;;;4992686;28;20440;-48
2022/05/06 04:45:41;;;;;;;24.98;16.55;;;6.40;99.90;;;;;;4992834;28;20015;-47
2022/05/06 04:48:07;;;;;;;27.05;15.57;;;6.50;99.90;;;;;;4992732;28;20546;-49
2022/05/06 04:50:38;;;;;;;28.88;17.05;;;6.50;99.90;;;;;;4992609;28;20026;-50
2022/05/06 04:53:07;;;;;;;27.38;16.73;;;6.60;99.90;;;;;;4992308;28;20025;-49
2022/05/06 04:55:39;;;;;;;25.38;15.77;;;6.70;99.90;;;;;;4975351;28;20050;-49
2022/05/06 04:58:06;;;;;;;28.00;17.77;;;6.70;99.90;;;;;;4992713;28;20022;-49
2022/05/06 05:00:32;;;;;;;25.00;16.73;;;6.70;99.90;;;;;;4975441;28;20085;-48
2022/05/06 05:02:59;;;;;;;30.35;16.48;;;6.80;99.90;;;;;;4974624;28;20383;-49
2022/05/06 05:05:24;;;;;;;23.75;14.38;;;6.80;99.90;;;;;;4991726;28;20023;-47
2022/05/06 05:07:50;;;;;;;23.52;16.45;;;6.80;99.90;;;;;;4990903;28;20038;-50
2022/05/06 05:10:16;;;;;;;25.33;17.65;;;6.90;99.90;;;;;;4992190;28;20026;-48
2022/05/06 05:12:42;;;;;;;24.45;15.15;;;6.90;99.90;;;;;;4991999;28;20161;-47
2022/05/06 05:15:08;;;;;;;28.40;16.15;;;7.00;99.90;;;;;;4992211;28;20026;-50
2022/05/06 05:17:34;;;;;;;23.73;15.30;;;7.00;99.90;;;;;;4992306;28;20034;-47
2022/05/06 05:20:00;;;;;;;24.10;15.20;;;7.10;99.90;;;;;;4992253;28;20483;-52
2022/05/06 05:22:26;;;;;;;22.98;15.30;;;7.20;99.90;;;;;;4992581;28;20048;-48
2022/05/06 05:24:51;;;;;;;31.58;18.13;;;7.20;99.90;;;;;;4991754;28;20641;-49
2022/05/06 05:27:17;;;;;;;26.67;16.55;;;7.30;99.90;;;;;;4991920;28;20033;-48
2022/05/06 05:29:43;;;;;;;23.60;14.48;;;7.30;99.90;;;;;;4991844;28;20119;-51
2022/05/06 05:32:10;;;;;;;39.88;16.73;;;7.40;99.90;;;;;;4991447;28;20022;-51
2022/05/06 05:34:36;;;;;;;23.98;14.32;;;7.40;99.90;;;;;;4991561;28;20073;-48
2022/05/06 05:37:01;;;;;;;29.33;16.17;;;7.40;99.90;;;;;;4991586;28;20546;-51
2022/05/06 05:39:27;;;;;;;29.00;16.88;;;7.40;99.90;;;;;;4991694;28;20034;-47
2022/05/06 05:41:53;;;;;;;24.10;14.98;;;7.40;99.90;;;;;;4991429;28;20028;-49
2022/05/06 05:49:48;;;;;;;35.42;16.38;;;7.60;99.90;;;;;;4991570;28;20033;-51
2022/05/06 05:52:14;;;;;;;27.42;15.88;;;7.60;99.90;;;;;;4991169;28;20031;-49
2022/05/06 05:54:40;;;;;;;24.45;16.45;;;7.60;99.90;;;;;;4991503;28;20030;-51
2022/05/06 05:57:06;;;;;;;31.85;16.95;;;7.70;99.90;;;;;;4991679;28;20557;-47
2022/05/06 05:59:33;;;;;;;28.08;16.77;;;7.70;99.90;;;;;;4991487;28;20027;-49
2022/05/06 06:01:59;;;;;;;25.55;16.08;;;7.80;99.90;;;;;;4991378;28;20132;-54
2022/05/06 06:04:25;;;;;;;31.75;17.23;;;7.80;99.90;;;;;;4990628;28;20032;-51
2022/05/06 06:06:50;;;;;;;26.48;16.92;;;7.90;99.90;;;;;;4991304;28;20656;-47
2022/05/06 06:09:17;;;;;;;28.52;17.95;;;7.90;99.90;;;;;;4991212;28;20022;-50
2022/05/06 06:11:43;;;;;;;26.02;17.35;;;7.90;99.90;;;;;;4990802;28;20026;-48
2022/05/06 06:14:09;;;;;;;31.58;17.67;;;8.00;99.90;;;;;;4991064;28;20026;-49
2022/05/06 06:16:34;;;;;;;23.05;16.05;;;8.10;99.90;;;;;;4991020;28;20026;-48
2022/05/06 06:19:00;;;;;;;32.78;19.30;;;8.20;99.90;;;;;;4990750;28;20056;-51
2022/05/06 06:21:26;;;;;;;28.25;17.70;;;8.30;99.90;;;;;;4990908;28;20398;-49
2022/05/06 06:23:51;;;;;;;30.38;18.15;;;8.30;99.90;;;;;;4991039;28;20144;-51
2022/05/06 06:26:17;;;;;;;30.23;17.52;;;8.40;99.90;;;;;;4990945;28;20057;-50
2022/05/06 06:28:43;;;;;;;32.80;18.60;;;8.50;99.90;;;;;;4990758;28;20038;-50
2022/05/06 06:31:08;;;;;;;29.38;17.95;;;8.60;99.90;;;;;;4990752;28;20550;-55
2022/05/06 06:33:37;;;;;;;32.63;17.92;;;8.80;99.90;;;;;;4990977;28;20030;-51
2022/05/06 06:36:04;;;;;;;30.10;15.90;;;8.80;99.90;;;;;;4990899;28;20130;-49
2022/05/06 06:38:30;;;;;;;31.83;18.25;;;8.80;99.90;;;;;;4991011;28;20026;-50
2022/05/06 06:40:55;;;;;;;26.80;15.23;;;8.90;99.90;;;;;;4990788;28;20041;-50
2022/05/06 06:43:21;;;;;;;26.20;17.55;;;9.00;99.90;;;;;;4990436;28;20034;-52
2022/05/06 06:45:47;;;;;;;24.10;17.05;;;9.10;99.90;;;;;;4990668;28;20445;-53
2022/05/06 06:48:12;;;;;;;23.08;15.52;;;9.20;99.90;;;;;;4990634;28;20125;-49
2022/05/06 06:50:39;;;;;;;26.75;16.95;;;9.40;99.90;;;;;;4990671;28;20121;-51
2022/05/06 06:53:05;;;;;;;22.63;14.93;;;9.50;99.90;;;;;;4990518;28;20432;-48
2022/05/06 06:55:31;;;;;;;22.98;16.27;;;9.80;99.90;;;;;;4990483;28;20387;-49
2022/05/06 06:57:56;;;;;;;23.70;16.00;;;9.90;99.90;;;;;;4990380;28;20033;-50
2022/05/06 07:00:22;;;;;;;27.55;16.88;;;10.10;99.90;;;;;;4990674;28;20137;-50
2022/05/06 07:02:48;;;;;;;26.27;17.35;;;10.20;99.90;;;;;;4990248;28;20084;-48
2022/05/06 07:05:13;;;;;;;26.05;15.85;;;10.30;99.90;;;;;;4990380;28;20027;-47
2022/05/06 07:13:25;;;;;;;24.85;16.45;;;11.00;99.90;;;;;;4892171;29;20063;-47
2022/05/06 07:15:51;;;;;;;23.38;16.00;;;11.30;99.90;;;;;;4970536;28;20039;-49
2022/05/06 07:18:17;;;;;;;25.90;15.82;;;11.60;99.90;;;;;;4990372;28;20031;-47
2022/05/06 07:20:42;;;;;;;23.55;15.88;;;11.80;99.90;;;;;;4990369;28;20054;-47
2022/05/06 07:23:09;;;;;;;21.77;16.40;;;12.00;99.90;;;;;;4990162;28;20505;-48
2022/05/06 07:25:34;;;;;;;25.25;15.75;;;12.30;99.90;;;;;;4990310;28;20018;-48
2022/05/06 07:28:00;;;;;;;21.10;15.80;;;12.60;99.90;;;;;;4990449;28;20031;-48
2022/05/06 07:30:25;;;;;;;21.10;14.85;;;12.80;99.90;;;;;;4990346;28;20038;-48
2022/05/06 07:32:51;;;;;;;23.30;15.93;;;13.00;99.90;;;;;;4989960;28;20097;-49
2022/05/06 07:35:17;;;;;;;20.15;14.88;;;13.20;99.90;;;;;;4990079;28;20084;-51
2022/05/06 07:37:42;;;;;;;20.40;14.57;;;13.50;99.90;;;;;;4990115;28;20057;-49
2022/05/06 07:40:11;;;;;;;27.13;15.82;;;13.80;99.90;;;;;;4990338;28;20047;-49
2022/05/06 07:42:41;;;;;;;21.42;15.10;;;14.00;99.90;;;;;;4989753;28;20091;-48
2022/05/06 07:45:07;;;;;;;19.95;14.98;;;14.20;99.90;;;;;;4990062;28;20018;-48
2022/05/06 07:47:33;;;;;;;21.77;15.85;;;14.40;99.90;;;;;;4989912;28;20026;-48
2022/05/06 07:49:58;;;;;;;22.00;14.60;;;14.50;99.90;;;;;;4990163;28;20039;-48
2022/05/06 07:52:24;;;;;;;19.75;14.10;;;14.60;99.90;;;;;;4990061;28;20026;-49
2022/05/06 07:54:49;;;;;;;18.52;13.68;;;14.80;99.90;;;;;;4990272;28;20042;-49
2022/05/06 07:57:15;;;;;;;25.25;16.55;;;15.00;99.90;;;;;;4990422;28;20114;-49
2022/05/06 07:59:41;;;;;;;20.35;14.95;;;15.30;99.90;;;;;;4997473;28;20018;-52
2022/05/06 08:04:50;;;;;;;18.15;14.90;;;15.80;99.90;;;;;;5009416;28;20509;-52
2022/05/06 08:07:17;;;;;;;17.88;14.88;;;16.00;99.90;;;;;;5009530;28;20105;-52
2022/05/06 08:09:43;;;;;;;20.73;15.43;;;16.20;99.90;;;;;;5009551;28;20153;-52
2022/05/06 08:12:09;;;;;;;21.35;16.35;;;16.40;99.90;;;;;;4994019;28;20034;-52
2022/05/06 08:14:35;;;;;;;23.77;15.52;;;16.60;99.90;;;;;;5013104;28;20037;-52
2022/05/06 08:17:02;;;;;;;20.13;14.45;;;16.70;99.90;;;;;;5012904;28;20026;-49
2022/05/06 08:19:28;;;;;;;23.52;14.57;;;16.90;99.90;;;;;;5012445;28;20597;-48
2022/05/06 08:21:53;;;;;;;16.00;13.23;;;17.00;99.90;;;;;;5012654;28;20026;-48
2022/05/06 08:24:20;;;;;;;22.02;14.77;;;17.20;99.90;;;;;;5012752;28;20097;-54
2022/05/06 08:26:46;;;;;;;15.95;12.90;;;17.30;99.90;;;;;;4995030;28;20025;-53
2022/05/06 08:29:12;;;;;;;17.67;12.73;;;17.50;99.90;;;;;;5012620;28;20021;-51
2022/05/06 08:31:38;;;;;;;17.23;12.82;;;17.50;99.90;;;;;;5012477;28;20088;-54
2022/05/06 08:34:13;;;;;;;14.52;11.95;;;17.60;99.90;;;;;;5012653;28;20104;-51
2022/05/06 08:36:41;;;;;;;15.73;10.82;;;17.80;99.90;;;;;;5012678;28;20109;-51
2022/05/06 08:39:08;;;;;;;17.17;12.68;;;17.90;99.90;;;;;;5012362;28;20030;-49
2022/05/06 08:41:36;;;;;;;14.00;11.27;;;18.00;99.90;;;;;;5012324;28;20030;-50
2022/05/06 08:52:25;;;;;;;14.90;11.77;;;18.70;99.90;;;;;;5012226;28;20103;-53
2022/05/06 08:54:51;;;;;;;13.45;11.13;;;18.60;99.90;;;;;;5011952;28;20033;-50
2022/05/06 08:57:17;;;;;;;22.00;11.98;;;18.70;99.90;;;;;;5012386;28;20080;-54
2022/05/06 08:59:42;;;;;;;13.77;11.30;;;18.80;99.90;;;;;;5012138;28;20550;-50
2022/05/06 09:02:09;;;;;;;17.83;12.38;;;18.90;99.90;;;;;;5011849;28;20110;-52
2022/05/06 09:04:39;;;;;;;14.35;11.48;;;19.10;99.90;;;;;;5011802;28;20045;-53
2022/05/06 09:07:23;;;;;;;13.27;10.43;;;18.90;99.90;;;;;;5012019;28;20022;-52
2022/05/06 09:10:13;;;;;;;13.75;10.57;;;19.10;99.90;;;;;;5012314;28;20033;-53
2022/05/06 09:12:42;;;;;;;16.15;12.23;;;19.20;99.90;;;;;;4994441;28;20030;-49
2022/05/06 09:17:54;;;;;;;11.35;8.63;;;19.30;99.60;;;;;;5012067;28;20528;-51
2022/05/06 09:20:21;;;;;;;12.68;10.02;;;19.50;99.80;;;;;;5011571;28;20034;-50
2022/05/06 09:22:48;;;;;;;9.88;8.20;;;19.90;99.90;;;;;;5010631;28;20061;-50
2022/05/06 09:25:42;;;;;;;10.18;8.10;;;20.00;98.30;;;;;;5011892;28;20057;-51
2022/05/06 09:28:24;;;;;;;12.70;9.85;;;20.10;97.30;;;;;;5011776;28;20040;-50
2022/05/06 09:31:08;;;;;;;11.23;8.43;;;19.90;97.90;;;;;;5011530;28;20442;-54
2022/05/06 09:33:42;;;;;;;11.43;8.73;;;20.10;98.90;;;;;;5011425;28;20034;-49
2022/05/06 09:36:26;;;;;;;12.30;8.95;;;19.90;95.50;;;;;;5011522;28;20502;-51
2022/05/06 09:39:14;;;;;;;9.55;8.13;;;19.50;97.40;;;;;;5011532;28;20062;-51
2022/05/06 09:41:41;;;;;;;12.27;8.73;;;19.60;97.90;;;;;;5011395;28;20508;-48
2022/05/06 09:44:09;;;;;;;9.70;7.72;;;19.80;97.60;;;;;;5011313;28;20022;-50
2022/05/06 09:46:35;;;;;;;10.60;8.10;;;19.90;95.70;;;;;;5011463;28;20024;-53
2022/05/06 09:49:03;;;;;;;11.98;9.20;;;20.00;96.70;;;;;;5011378;28;20482;-52
2022/05/06 09:51:33;;;;;;;10.90;9.80;;;20.20;96.10;;;;;;5011217;28;20115;-52
2022/05/06 09:53:59;;;;;;;14.18;10.32;;;20.20;97.30;;;;;;5010872;28;20026;-52
2022/05/06 09:56:27;;;;;;;13.68;9.95;;;20.30;96.30;;;;;;5011049;28;20096;-50
2022/05/06 09:58:55;;;;;;;15.40;10.55;;;20.00;95.60;;;;;;5011108;28;20030;-49
2022/05/06 10:01:21;;;;;;;12.40;10.88;;;20.10;95.80;;;;;;5010546;28;20022;-49
2022/05/06 10:03:47;;;;;;;14.55;10.77;;;20.20;95.60;;;;;;4993531;28;20402;-49
2022/05/06 10:06:13;;;;;;;13.35;10.48;;;20.10;96.00;;;;;;5010605;28;20089;-50
2022/05/06 10:08:44;;;;;;;16.50;11.73;;;20.30;95.80;;;;;;5010709;28;20535;-52
2022/05/06 10:11:14;;;;;;;17.48;11.30;;;19.80;95.20;;;;;;5010744;28;20099;-56
2022/05/06 10:13:45;;;;;;;15.98;11.48;;;19.70;96.00;;;;;;5010800;28;20026;-54
2022/05/06 10:16:12;;;;;;;15.25;10.88;;;19.70;97.10;;;;;;5010918;28;20612;-55
2022/05/06 10:18:39;;;;;;;12.20;10.40;;;19.60;96.50;;;;;;5010417;28;20033;-52
2022/05/06 10:21:06;;;;;;;15.60;10.55;;;19.70;98.10;;;;;;5010529;28;20028;-53
2022/05/06 10:23:52;;;;;;;15.50;11.23;;;19.90;96.00;;;;;;5010693;28;20401;-52
2022/05/06 10:26:39;;;;;;;15.52;10.65;;;19.90;95.40;;;;;;5010771;28;20046;-53
2022/05/06 10:34:57;;;;;;;12.57;10.27;;;19.30;95.80;;;;;;5010488;28;20469;-52
2022/05/06 10:37:23;;;;;;;12.68;9.80;;;19.50;97.70;;;;;;5010254;28;20099;-51
2022/05/06 10:39:49;;;;;;;14.18;9.05;;;19.60;95.30;;;;;;5010509;28;20049;-50
2022/05/06 10:42:16;;;;;;;15.50;10.50;;;19.60;95.40;;;;;;4992682;28;20048;-53
2022/05/06 10:44:49;;;;;;;13.30;10.60;;;19.70;95.50;;;;;;5010380;28;20025;-52
2022/05/06 10:47:15;;;;;;;11.55;10.00;;;19.40;95.00;;;;;;5010386;28;20040;-52
2022/05/06 10:49:43;;;;;;;14.88;9.93;;;19.40;96.60;;;;;;5010298;28;20402;-51
2022/05/06 10:52:19;;;;;;;14.15;9.48;;;19.20;95.30;;;;;;5010201;28;20033;-54
2022/05/06 10:54:50;;;;;;;13.50;10.02;;;18.90;96.30;;;;;;5010192;28;20034;-53
2022/05/06 10:57:18;;;;;;;14.43;9.52;;;18.80;96.70;;;;;;5010122;28;20057;-51
2022/05/06 10:59:56;;;;;;;10.02;8.88;;;19.00;96.60;;;;;;5010162;28;20050;-51
2022/05/06 11:02:27;;;;;;;12.88;9.35;;;19.00;96.40;;;;;;5009776;28;20033;-49
2022/05/06 11:05:05;;;;;;;13.32;9.60;;;19.20;97.00;;;;;;5010183;28;20549;-48
2022/05/06 11:07:33;;;;;;;12.40;9.65;;;18.90;96.30;;;;;;5010426;28;20038;-50
2022/05/06 11:09:59;;;;;;;14.32;10.10;;;18.90;96.80;;;;;;5010001;28;20068;-51
2022/05/06 11:12:31;;;;;;;13.13;9.05;;;18.90;97.60;;;;;;5009690;28;20029;-53
2022/05/06 11:14:57;;;;;;;10.50;8.52;;;19.00;96.50;;;;;;5009893;28;20034;-49
2022/05/06 11:17:24;;;;;;;11.65;7.82;;;18.90;97.30;;;;;;5009990;28;20076;-49
2022/05/06 11:19:50;;;;;;;13.23;8.55;;;19.20;96.00;;;;;;5009643;28;20041;-50
2022/05/06 11:22:17;;;;;;;11.75;7.85;;;19.30;96.20;;;;;;5009975;28;20072;-50
2022/05/06 11:24:43;;;;;;;13.02;8.82;;;19.30;96.10;;;;;;5009665;28;20030;-51
2022/05/06 11:27:13;;;;;;;11.27;9.05;;;19.30;95.00;;;;;;5009704;28;20044;-50
2022/05/06 11:29:55;;;;;;;13.30;9.70;;;19.30;95.10;;;;;;5009757;28;20022;-53
2022/05/06 11:32:22;;;;;;;32.83;10.90;;;19.30;96.00;;;;;;5009531;28;20064;-53
2022/05/06 11:35:01;;;;;;;15.70;9.13;;;19.30;94.60;;;;;;5009545;28;20030;-50
2022/05/06 11:37:30;;;;;;;9.27;7.93;;;19.30;95.60;;;;;;5009702;28;20026;-53
2022/05/06 11:42:40;;;;;;;10.60;8.95;;;19.40;94.80;;;;;;5009823;28;20037;-48
2022/05/06 11:47:51;;;;;;;12.33;9.90;;;19.70;94.30;;;;;;4999400;28;20064;-52
2022/05/06 11:50:17;;;;;;;11.52;8.00;;;19.80;94.70;;;;;;5013644;28;20065;-48
2022/05/06 11:52:47;;;;;;;11.35;8.95;;;19.80;94.90;;;;;;5013301;28;20037;-49
2022/05/06 11:55:15;;;;;;;10.77;9.30;;;19.90;94.80;;;;;;5013185;28;20042;-49
2022/05/06 11:57:42;;;;;;;11.57;8.25;;;19.90;93.70;;;;;;5013407;28;20030;-50
2022/05/06 12:00:09;;;;;;;9.23;7.38;;;19.80;94.90;;;;;;5013102;28;20040;-52
2022/05/06 12:02:34;;;;;;;10.73;7.55;;;19.90;95.20;;;;;;4995277;28;20080;-48
2022/05/06 12:05:00;;;;;;;9.98;7.38;;;20.00;94.10;;;;;;5013205;28;20026;-51
2022/05/06 12:07:44;;;;;;;10.70;8.43;;;20.10;95.00;;;;;;5013258;28;20030;-48
2022/05/06 12:10:10;;;;;;;9.45;7.53;;;20.40;95.30;;;;;;5013059;28;20040;-51
2022/05/06 12:13:11;;;;;;;9.95;7.50;;;20.70;94.30;;;;;;5012719;28;20528;-53
2022/05/06 12:15:38;;;;;;;7.55;6.63;;;20.90;93.90;;;;;;4933270;29;20039;-48
2022/05/06 12:18:09;;;;;;;6.65;5.95;;;21.10;93.80;;;;;;4996979;28;20046;-54
2022/05/06 12:20:40;;;;;;;8.77;7.85;;;21.20;92.80;;;;;;5012796;28;20014;-51
2022/05/06 12:23:08;;;;;;;8.35;7.35;;;21.20;91.20;;;;;;5012966;28;20101;-53
2022/05/06 12:25:35;;;;;;;7.60;5.95;;;21.20;91.40;;;;;;5013307;28;20486;-53
2022/05/06 12:28:05;;;;;;;9.32;6.38;;;21.00;91.30;;;;;;5012982;28;20041;-51
2022/05/06 12:30:32;;;;;;;10.18;6.70;;;21.10;91.30;;;;;;4995026;28;20088;-52
2022/05/06 12:33:05;;;;;;;7.72;6.53;;;21.20;91.30;;;;;;4994982;28;20116;-53
2022/05/06 12:35:31;;;;;;;9.27;5.68;;;21.40;91.90;;;;;;5012473;28;20026;-48
2022/05/06 12:37:59;;;;;;;5.80;5.13;;;21.80;92.70;;;;;;5012382;28;20053;-52
2022/05/06 12:40:30;;;;;;;5.60;5.03;;;22.00;91.00;;;;;;4994884;28;20489;-48
2022/05/06 12:43:06;;;;;;;9.18;6.68;;;22.10;90.70;;;;;;5012173;28;20033;-53
2022/05/06 12:45:31;;;;;;;8.65;6.80;;;22.00;90.00;;;;;;5012363;28;20022;-52
2022/05/06 12:50:42;;;;;;;8.43;5.82;;;21.60;88.50;;;;;;5012317;28;20033;-50
2022/05/06 12:53:08;;;;;;;7.28;5.32;;;21.60;88.00;;;;;;5012079;28;20045;-54
2022/05/06 12:55:34;;;;;;;6.78;6.07;;;21.70;89.40;;;;;;5011957;28;20354;-53
2022/05/06 12:58:00;;;;;;;8.65;6.28;;;22.00;88.50;;;;;;5012211;28;20034;-53
2022/05/06 13:00:26;;;;;;;12.35;6.65;;;22.00;86.50;;;;;;5012448;28;20030;-53
2022/05/06 13:02:52;;;;;;;8.25;6.07;;;21.70;85.60;;;;;;5012324;28;20672;-54
2022/05/06 13:05:18;;;;;;;7.78;5.85;;;21.50;86.70;;;;;;5012055;28;20076;-55
2022/05/06 13:07:44;;;;;;;13.02;6.82;;;21.50;86.30;;;;;;5012261;28;20116;-53
2022/05/06 13:10:09;;;;;;;6.95;5.75;;;21.30;86.50;;;;;;5012060;28;20509;-53
2022/05/06 13:12:35;;;;;;;6.18;5.22;;;21.30;87.00;;;;;;5011919;28;20022;-54
2022/05/06 13:15:01;;;;;;;7.45;5.75;;;21.10;87.60;;;;;;5011905;28;20120;-54
2022/05/06 13:17:26;;;;;;;15.20;7.07;;;21.10;87.30;;;;;;5012362;28;20034;-53
2022/05/06 13:19:52;;;;;;;6.93;5.90;;;21.00;88.90;;;;;;4994015;28;20382;-51
2022/05/06 13:22:17;;;;;;;9.93;6.10;;;21.10;89.10;;;;;;5011657;28;20648;-54
2022/05/06 13:24:43;;;;;;;10.40;6.20;;;21.10;87.80;;;;;;5011568;28;20520;-54